Poplar Bluff, MO (63901)

7:16 AM CST on December 07, 2016 (GMT -0600)
Hydro Adventures | | Change Station

Elev 417 ft 36.73 °N, 90.40 °W | Updated 1 minute ago

Overcast
Overcast
33.6 °F
Feels Like 30 °F
N
4.0
Wind Variable Wind from NNE
Gusts 8.0 mph

Today
High -- | Low -- °F
--% Chance of Precip.
Yesterday
High -- | Low -- °F
Precip. -- in
Pressure 30.25 in
Visibility 10.0 miles
Clouds Overcast 9000 ft
Windchill 30 °F
Dew Point 24 °F
Humidity 66%
Rainfall 0.00 in
Snow Depth Not available.
7:01 AM 4:45 PM
First Quarter, 52% visible
METAR KPOF 071253Z AUTO 35004KT 10SM OVC090 01/M03 A3023 RMK AO2 SLP241 T00061028 TSNO
Pressure 30.25 in
Visibility 10.0 miles
Clouds Overcast 9000 ft
Windchill 30 °F
Dew Point 24 °F
Humidity 66%
Rainfall 0.00 in
Snow Depth Not available.
7:01 AM 4:45 PM
First Quarter, 52% visible
METAR KPOF 071253Z AUTO 35004KT 10SM OVC090 01/M03 A3023 RMK AO2 SLP241 T00061028 TSNO

10-Day Weather Forecast

Almanac

Astronomy

Dec. 07, 2016 Rise Set
Actual Time
Civil Twilight
Nautical Twilight
Astronomical Twilight
Moon
Length of Visible Light
Length of Day
Tomorrow will be .
, % of the Moon is Illuminated

Today's Extremes

State Highs State Lows

Community

WunderPhotos

Upload Photos

1,956,112 photos uploaded!

WunderBlog® & News

Nearby

Air Quality

  Air Quality AQ Index Pollutant
Not available.

Snow Depth

Station Depth Elevation

Earthquake Activity

City Distance Mag. Time & Date
Minimum magnitude displayed is 2.5.

Coastal Water Temperatures

Place Temperature

Stations

Nearby Weather Stations

Station Location Temp. Windchill Dew Point Humidity Wind Precip. Elev Updated Type
                   

Watches & Warnings

There are currently no watches in effect.